createdAt,value
2018-12-13T00:00:52.751Z,1022.32
2018-12-13T00:01:52.739Z,1022.32
2018-12-13T00:02:52.737Z,1022.33
2018-12-13T00:03:52.753Z,1022.26
2018-12-13T00:04:52.718Z,1022.33
2018-12-13T00:05:52.702Z,1022.30
2018-12-13T00:06:52.685Z,1022.30
2018-12-13T00:07:52.684Z,1022.27
2018-12-13T00:08:52.666Z,1022.36
2018-12-13T00:09:52.693Z,1022.34
2018-12-13T00:10:52.644Z,1022.33
2018-12-13T00:11:52.640Z,1022.33
2018-12-13T00:12:52.625Z,1022.25
2018-12-13T00:13:52.615Z,1022.28
2018-12-13T00:14:52.611Z,1022.27
2018-12-13T00:15:52.673Z,1022.29
2018-12-13T00:16:52.582Z,1022.34
2018-12-13T00:17:52.573Z,1022.35
2018-12-13T00:18:52.571Z,1022.31
2018-12-13T00:19:52.552Z,1022.33
2018-12-13T00:21:04.178Z,1022.30
2018-12-13T00:21:52.531Z,1022.30
2018-12-13T00:22:52.520Z,1022.29
2018-12-13T00:23:52.509Z,1022.23
2018-12-13T00:24:52.496Z,1022.32
2018-12-13T00:25:52.488Z,1022.33
2018-12-13T00:26:52.691Z,1022.32
2018-12-13T00:27:52.474Z,1022.34
2018-12-13T00:28:52.459Z,1022.33
2018-12-13T00:29:52.444Z,1022.35
2018-12-13T00:30:52.434Z,1022.33
2018-12-13T00:31:52.468Z,1022.36
2018-12-13T00:32:52.425Z,1022.32
2018-12-13T00:33:52.405Z,1022.36
2018-12-13T00:34:52.398Z,1022.35
2018-12-13T00:35:52.385Z,1022.38
2018-12-13T00:36:52.370Z,1022.28
2018-12-13T00:37:52.355Z,1022.33
2018-12-13T00:38:52.682Z,1022.32
2018-12-13T00:39:52.335Z,1022.31
2018-12-13T00:40:52.327Z,1022.35
2018-12-13T00:41:52.321Z,1022.36
2018-12-13T00:42:52.304Z,1022.36
2018-12-13T00:43:52.291Z,1022.32
2018-12-13T00:44:52.301Z,1022.31
2018-12-13T00:45:52.275Z,1022.37
2018-12-13T00:46:52.264Z,1022.38
2018-12-13T00:47:52.270Z,1022.32
2018-12-13T00:48:52.245Z,1022.27
2018-12-13T00:49:52.227Z,1022.41
2018-12-13T00:50:53.006Z,1022.38
2018-12-13T00:52:02.424Z,1022.39
2018-12-13T00:52:52.204Z,1022.38
2018-12-13T00:53:52.189Z,1022.40
2018-12-13T00:54:52.178Z,1022.38
2018-12-13T00:55:52.172Z,1022.43
2018-12-13T00:56:52.183Z,1022.39
2018-12-13T00:57:52.149Z,1022.40
2018-12-13T00:58:52.138Z,1022.44
2018-12-13T00:59:52.134Z,1022.48
2018-12-13T01:00:52.115Z,1022.44
2018-12-13T01:01:52.106Z,1022.44
2018-12-13T01:02:52.125Z,1022.43
2018-12-13T01:03:52.084Z,1022.41
2018-12-13T01:04:52.072Z,1022.44
2018-12-13T01:05:52.067Z,1022.46
2018-12-13T01:06:52.050Z,1022.49
2018-12-13T01:07:52.039Z,1022.45
2018-12-13T01:08:52.196Z,1022.42
2018-12-13T01:09:52.019Z,1022.46
2018-12-13T01:10:52.008Z,1022.42
2018-12-13T01:11:52.001Z,1022.42
2018-12-13T01:12:51.993Z,1022.45
2018-12-13T01:13:51.985Z,1022.43
2018-12-13T01:14:52.006Z,1022.50
2018-12-13T01:15:51.958Z,1022.49
2018-12-13T01:16:51.948Z,1022.48
2018-12-13T01:17:51.936Z,1022.49
2018-12-13T01:18:51.923Z,1022.44
2018-12-13T01:19:51.916Z,1022.46
2018-12-13T01:20:52.206Z,1022.44
2018-12-13T01:21:51.892Z,1022.40
2018-12-13T01:23:02.222Z,1022.39
2018-12-13T01:23:51.873Z,1022.38
2018-12-13T01:24:51.859Z,1022.45
2018-12-13T01:25:51.851Z,1022.44
2018-12-13T01:26:51.884Z,1022.42
2018-12-13T01:27:51.834Z,1022.42
2018-12-13T01:28:51.816Z,1022.42
2018-12-13T01:29:51.807Z,1022.40
2018-12-13T01:30:51.796Z,1022.46
2018-12-13T01:31:51.787Z,1022.44
2018-12-13T01:32:51.808Z,1022.44
2018-12-13T01:33:51.761Z,1022.47
2018-12-13T01:34:51.759Z,1022.45
2018-12-13T01:35:51.753Z,1022.47
2018-12-13T01:36:52.548Z,1022.50
2018-12-13T01:37:51.719Z,1022.53
2018-12-13T01:38:51.730Z,1022.52
2018-12-13T01:39:51.703Z,1022.51
2018-12-13T01:40:51.694Z,1022.56
2018-12-13T01:41:51.680Z,1022.57
2018-12-13T01:42:51.670Z,1022.50
2018-12-13T01:43:51.660Z,1022.53
2018-12-13T01:44:52.457Z,1022.52
2018-12-13T01:45:51.633Z,1022.48
2018-12-13T01:46:51.623Z,1022.51
2018-12-13T01:47:51.618Z,1022.54
2018-12-13T01:48:51.610Z,1022.56
2018-12-13T01:49:51.600Z,1022.52
2018-12-13T01:50:51.614Z,1022.50
2018-12-13T01:51:51.570Z,1022.51
2018-12-13T01:52:51.561Z,1022.47
2018-12-13T01:54:01.524Z,1022.48
2018-12-13T01:54:51.539Z,1022.46
2018-12-13T01:55:51.528Z,1022.52
2018-12-13T01:56:52.305Z,1022.54
2018-12-13T01:57:51.510Z,1022.52
2018-12-13T01:58:51.499Z,1022.46
2018-12-13T01:59:51.491Z,1022.45
2018-12-13T02:00:51.483Z,1022.50
2018-12-13T02:01:51.467Z,1022.48
2018-12-13T02:02:51.498Z,1022.50
2018-12-13T02:03:51.451Z,1022.47
2018-12-13T02:04:51.438Z,1022.49
2018-12-13T02:05:51.426Z,1022.51
2018-12-13T02:06:51.420Z,1022.54
2018-12-13T02:07:51.406Z,1022.54
2018-12-13T02:08:51.431Z,1022.58
2018-12-13T02:09:51.390Z,1022.52
2018-12-13T02:10:51.370Z,1022.52
2018-12-13T02:11:51.357Z,1022.57
2018-12-13T02:12:51.359Z,1022.57
2018-12-13T02:13:51.345Z,1022.57
2018-12-13T02:14:51.725Z,1022.56
2018-12-13T02:15:51.319Z,1022.55
2018-12-13T02:16:51.314Z,1022.67
2018-12-13T02:17:51.300Z,1022.61
2018-12-13T02:18:51.289Z,1022.61
2018-12-13T02:19:51.278Z,1022.64
2018-12-13T02:20:52.061Z,1022.74
2018-12-13T02:21:51.264Z,1022.71
2018-12-13T02:22:51.252Z,1022.72
2018-12-13T02:23:51.233Z,1022.68
2018-12-13T02:25:01.419Z,1022.73
2018-12-13T02:25:51.209Z,1022.71
2018-12-13T02:26:51.244Z,1022.75
2018-12-13T02:27:51.192Z,1022.77
2018-12-13T02:28:51.175Z,1022.72
2018-12-13T02:29:51.179Z,1022.70
2018-12-13T02:30:51.161Z,1022.69
2018-12-13T02:31:51.144Z,1022.65
2018-12-13T02:32:51.159Z,1022.68
2018-12-13T02:33:51.127Z,1022.71
2018-12-13T02:34:51.120Z,1022.70
2018-12-13T02:35:51.101Z,1022.68
2018-12-13T02:36:51.093Z,1022.73
2018-12-13T02:37:51.081Z,1022.67
2018-12-13T02:38:51.745Z,1022.69
2018-12-13T02:39:51.060Z,1022.73
2018-12-13T02:40:51.054Z,1022.69
2018-12-13T02:41:51.043Z,1022.77
2018-12-13T02:42:51.027Z,1022.80
2018-12-13T02:43:51.047Z,1022.78
2018-12-13T02:44:51.233Z,1022.78
2018-12-13T02:45:51.001Z,1022.77
2018-12-13T02:46:50.982Z,1022.77
2018-12-13T02:47:50.976Z,1022.81
2018-12-13T02:48:50.966Z,1022.76
2018-12-13T02:49:50.959Z,1022.71
2018-12-13T02:50:51.214Z,1022.76
2018-12-13T02:51:50.934Z,1022.74
2018-12-13T02:52:50.926Z,1022.69
2018-12-13T02:53:50.915Z,1022.75
2018-12-13T02:54:50.903Z,1022.73
2018-12-13T02:56:01.234Z,1022.78
2018-12-13T02:56:50.877Z,1022.74
2018-12-13T02:57:50.869Z,1022.79
2018-12-13T02:58:50.858Z,1022.78
2018-12-13T02:59:50.846Z,1022.75
2018-12-13T03:00:50.848Z,1022.79
2018-12-13T03:01:50.866Z,1022.79
2018-12-13T03:02:50.819Z,1022.82
2018-12-13T03:03:50.808Z,1022.78
2018-12-13T03:04:50.796Z,1022.86
2018-12-13T03:05:50.788Z,1022.79
2018-12-13T03:06:50.777Z,1022.80
2018-12-13T03:07:50.781Z,1022.81
2018-12-13T03:08:50.760Z,1022.81
2018-12-13T03:09:50.740Z,1022.85
2018-12-13T03:10:50.726Z,1022.89
2018-12-13T03:11:50.724Z,1022.84
2018-12-13T03:12:50.712Z,1022.84
2018-12-13T03:13:50.723Z,1022.86
2018-12-13T03:14:50.687Z,1022.87
2018-12-13T03:15:50.681Z,1022.89
2018-12-13T03:16:50.663Z,1022.84
2018-12-13T03:17:50.658Z,1022.88
2018-12-13T03:18:50.651Z,1022.89
2018-12-13T03:19:51.429Z,1022.87
2018-12-13T03:20:50.631Z,1022.88
2018-12-13T03:21:50.620Z,1022.90
2018-12-13T03:22:50.609Z,1022.89
2018-12-13T03:23:50.594Z,1022.90
2018-12-13T03:24:50.585Z,1022.89
2018-12-13T03:25:50.743Z,1022.87
2018-12-13T03:27:01.190Z,1022.86
2018-12-13T03:27:50.554Z,1022.89
2018-12-13T03:28:50.534Z,1022.91
2018-12-13T03:29:50.527Z,1022.87
2018-12-13T03:30:50.522Z,1022.94
2018-12-13T03:31:50.529Z,1022.87
2018-12-13T03:32:50.508Z,1022.90
2018-12-13T03:33:50.493Z,1022.89
2018-12-13T03:34:50.478Z,1022.92
2018-12-13T03:35:50.472Z,1022.88
2018-12-13T03:36:50.452Z,1022.93
2018-12-13T03:37:50.733Z,1022.92
2018-12-13T03:38:50.436Z,1022.95
2018-12-13T03:39:50.425Z,1022.93
2018-12-13T03:40:50.408Z,1022.92
2018-12-13T03:41:50.403Z,1022.90
2018-12-13T03:42:50.388Z,1022.92
2018-12-13T03:43:50.483Z,1022.92
2018-12-13T03:44:50.375Z,1022.93
2018-12-13T03:45:50.357Z,1022.92
2018-12-13T03:46:50.345Z,1022.97
2018-12-13T03:47:50.340Z,1022.95
2018-12-13T03:48:50.329Z,1022.99
2018-12-13T03:49:50.366Z,1022.95
2018-12-13T03:50:50.307Z,1022.93
2018-12-13T03:51:50.300Z,1022.93
2018-12-13T03:52:50.287Z,1022.97
2018-12-13T03:53:50.273Z,1023.02
2018-12-13T03:54:50.264Z,1023.06
2018-12-13T03:55:50.291Z,1023.06
2018-12-13T03:56:50.241Z,1023.04
2018-12-13T03:58:00.981Z,1023.03
2018-12-13T03:58:50.217Z,1023.05
2018-12-13T03:59:50.214Z,1023.03
2018-12-13T04:00:50.200Z,1023.11
2018-12-13T04:01:50.204Z,1023.08
2018-12-13T04:02:50.191Z,1023.05
2018-12-13T04:03:50.170Z,1023.04
2018-12-13T04:04:50.153Z,1022.98
2018-12-13T04:05:50.149Z,1023.03
2018-12-13T04:06:50.130Z,1023.01
2018-12-13T04:07:50.160Z,1023.06
2018-12-13T04:08:50.109Z,1022.99
2018-12-13T04:09:50.100Z,1023.04
2018-12-13T04:10:50.097Z,1023.03
2018-12-13T04:11:50.084Z,1023.03
2018-12-13T04:12:50.070Z,1023.00
2018-12-13T04:13:50.247Z,1023.03
2018-12-13T04:14:50.050Z,1023.09
2018-12-13T04:15:50.039Z,1023.07
2018-12-13T04:16:50.027Z,1023.12
2018-12-13T04:17:50.019Z,1023.07
2018-12-13T04:18:50.012Z,1023.12
2018-12-13T04:19:50.032Z,1023.13
2018-12-13T04:20:49.981Z,1023.08
2018-12-13T04:21:49.974Z,1023.07
2018-12-13T04:22:49.967Z,1023.07
2018-12-13T04:23:49.981Z,1023.06
2018-12-13T04:24:49.952Z,1023.09
2018-12-13T04:25:50.037Z,1023.13
2018-12-13T04:26:49.929Z,1023.11
2018-12-13T04:27:49.916Z,1023.14
2018-12-13T04:29:02.111Z,1023.11
2018-12-13T04:29:49.891Z,1023.11
2018-12-13T04:30:49.885Z,1023.08
2018-12-13T04:31:50.283Z,1023.14
2018-12-13T04:32:49.863Z,1023.21
2018-12-13T04:33:49.846Z,1023.16
2018-12-13T04:34:49.843Z,1023.13
2018-12-13T04:35:49.830Z,1023.18
2018-12-13T04:36:49.816Z,1023.17
2018-12-13T04:37:49.842Z,1023.14
2018-12-13T04:38:49.794Z,1023.12
2018-12-13T04:39:49.781Z,1023.17
2018-12-13T04:40:49.774Z,1023.17
2018-12-13T04:41:49.763Z,1023.14
2018-12-13T04:42:49.749Z,1023.12
2018-12-13T04:43:49.774Z,1023.15
2018-12-13T04:44:49.730Z,1023.18
2018-12-13T04:45:49.722Z,1023.15
2018-12-13T04:46:49.764Z,1023.16
2018-12-13T04:47:49.696Z,1023.12
2018-12-13T04:48:49.691Z,1023.16
2018-12-13T04:49:49.770Z,1023.16
2018-12-13T04:50:49.663Z,1023.10
2018-12-13T04:51:49.658Z,1023.14
2018-12-13T04:52:49.640Z,1023.13
2018-12-13T04:53:49.639Z,1023.10
2018-12-13T04:54:49.618Z,1023.15
2018-12-13T04:55:50.282Z,1023.13
2018-12-13T04:56:49.603Z,1023.12
2018-12-13T04:57:49.589Z,1023.14
2018-12-13T04:58:49.580Z,1023.21
2018-12-13T04:59:59.642Z,1023.17
2018-12-13T05:00:49.556Z,1023.19
2018-12-13T05:01:50.285Z,1023.20
2018-12-13T05:02:49.535Z,1023.17
2018-12-13T05:03:49.528Z,1023.21
2018-12-13T05:04:49.514Z,1023.17
2018-12-13T05:05:49.507Z,1023.16
2018-12-13T05:06:49.495Z,1023.20
2018-12-13T05:07:49.522Z,1023.17
2018-12-13T05:08:49.474Z,1023.21
2018-12-13T05:09:49.460Z,1023.20
2018-12-13T05:10:49.449Z,1023.19
2018-12-13T05:11:49.448Z,1023.17
2018-12-13T05:12:49.430Z,1023.14
2018-12-13T05:13:49.449Z,1023.16
2018-12-13T05:14:49.408Z,1023.15
2018-12-13T05:15:49.405Z,1023.16
2018-12-13T05:16:49.391Z,1023.15
2018-12-13T05:17:49.386Z,1023.14
2018-12-13T05:18:49.367Z,1023.15
2018-12-13T05:19:49.396Z,1023.13
2018-12-13T05:20:49.346Z,1023.12
2018-12-13T05:21:49.336Z,1023.08
2018-12-13T05:22:49.331Z,1023.10
2018-12-13T05:23:49.321Z,1023.05
2018-12-13T05:24:49.298Z,1023.16
2018-12-13T05:25:49.336Z,1023.13
2018-12-13T05:26:49.277Z,1023.17
2018-12-13T05:27:49.270Z,1023.15
2018-12-13T05:28:49.256Z,1023.09
2018-12-13T05:29:49.250Z,1023.14
2018-12-13T05:31:01.315Z,1023.17
2018-12-13T05:31:49.229Z,1023.17
2018-12-13T05:32:49.215Z,1023.11
2018-12-13T05:33:49.207Z,1023.19
2018-12-13T05:34:49.193Z,1023.18
2018-12-13T05:35:49.184Z,1023.14
2018-12-13T05:36:49.217Z,1023.16
2018-12-13T05:37:49.162Z,1023.13
2018-12-13T05:38:49.149Z,1023.13
2018-12-13T05:39:49.148Z,1023.22
2018-12-13T05:40:49.126Z,1023.12
2018-12-13T05:41:49.124Z,1023.13
2018-12-13T05:42:49.128Z,1023.18
2018-12-13T05:43:49.101Z,1023.19
2018-12-13T05:44:49.094Z,1023.20
2018-12-13T05:45:49.075Z,1023.22
2018-12-13T05:46:49.067Z,1023.28
2018-12-13T05:47:49.052Z,1023.33
2018-12-13T05:48:49.086Z,1023.33
2018-12-13T05:49:49.038Z,1023.26
2018-12-13T05:50:49.040Z,1023.30
2018-12-13T05:51:49.009Z,1023.37
2018-12-13T05:52:49.005Z,1023.33
2018-12-13T05:53:48.991Z,1023.34
2018-12-13T05:54:49.289Z,1023.37
2018-12-13T05:55:48.971Z,1023.40
2018-12-13T05:56:48.966Z,1023.36
2018-12-13T05:57:48.966Z,1023.41
2018-12-13T05:58:48.934Z,1023.42
2018-12-13T05:59:48.922Z,1023.44
2018-12-13T06:00:48.935Z,1023.43
2018-12-13T06:01:59.656Z,1023.42
2018-12-13T06:02:48.897Z,1023.40
2018-12-13T06:03:48.879Z,1023.45
2018-12-13T06:04:48.883Z,1023.44
2018-12-13T06:05:48.866Z,1023.44
2018-12-13T06:06:48.895Z,1023.46
2018-12-13T06:07:54.641Z,1023.46
2018-12-13T06:08:49.830Z,1023.46
2018-12-13T06:09:48.817Z,1023.48
2018-12-13T06:10:48.825Z,1023.48
2018-12-13T06:11:48.819Z,1023.50
2018-12-13T06:12:48.839Z,1023.48
2018-12-13T06:13:48.778Z,1023.47
2018-12-13T06:14:48.763Z,1023.51
2018-12-13T06:15:48.764Z,1023.52
2018-12-13T06:16:48.747Z,1023.52
2018-12-13T06:17:48.738Z,1023.56
2018-12-13T06:18:48.757Z,1023.53
2018-12-13T06:19:48.708Z,1023.52
2018-12-13T06:20:48.697Z,1023.57
2018-12-13T06:21:48.732Z,1023.57
2018-12-13T06:22:48.680Z,1023.55
2018-12-13T06:23:48.674Z,1023.54
2018-12-13T06:24:48.694Z,1023.60
2018-12-13T06:25:48.649Z,1023.56
2018-12-13T06:26:48.641Z,1023.58
2018-12-13T06:27:48.625Z,1023.59
2018-12-13T06:28:49.082Z,1023.64
2018-12-13T06:29:49.037Z,1023.62
2018-12-13T06:30:48.632Z,1023.62
2018-12-13T06:31:48.593Z,1023.63
2018-12-13T06:32:58.527Z,1023.66
2018-12-13T06:33:48.564Z,1023.65
2018-12-13T06:34:48.553Z,1023.63
2018-12-13T06:35:48.542Z,1023.65
2018-12-13T06:36:48.596Z,1023.67
2018-12-13T06:37:48.523Z,1023.68
2018-12-13T06:38:48.504Z,1023.69
2018-12-13T06:39:49.501Z,1023.64
2018-12-13T06:40:48.501Z,1023.75
2018-12-13T06:41:48.476Z,1023.79
2018-12-13T06:42:48.554Z,1023.73
2018-12-13T06:43:48.459Z,1023.74
2018-12-13T06:44:48.447Z,1023.78
2018-12-13T06:45:48.433Z,1023.78
2018-12-13T06:46:48.420Z,1023.74
2018-12-13T06:47:48.411Z,1023.80
2018-12-13T06:48:48.853Z,1023.81
2018-12-13T06:49:48.419Z,1023.82
2018-12-13T06:50:48.377Z,1023.78
2018-12-13T06:51:48.391Z,1023.81
2018-12-13T06:52:48.361Z,1023.79
2018-12-13T06:53:48.350Z,1023.81
2018-12-13T06:54:48.372Z,1023.81
2018-12-13T06:55:48.328Z,1023.85
2018-12-13T06:56:48.315Z,1023.83
2018-12-13T06:57:48.304Z,1023.86
2018-12-13T06:58:48.299Z,1023.83
2018-12-13T06:59:48.287Z,1023.79
2018-12-13T07:00:48.843Z,1023.79
2018-12-13T07:01:48.262Z,1023.85
2018-12-13T07:02:48.255Z,1023.79
2018-12-13T07:03:58.371Z,1023.81
2018-12-13T07:04:48.229Z,1023.84
2018-12-13T07:05:48.218Z,1023.81
2018-12-13T07:06:48.227Z,1023.76
2018-12-13T07:07:48.195Z,1023.78
2018-12-13T07:08:48.202Z,1023.78
2018-12-13T07:09:48.174Z,1023.80
2018-12-13T07:10:48.164Z,1023.78
2018-12-13T07:11:48.167Z,1023.77
2018-12-13T07:12:48.186Z,1023.81
2018-12-13T07:13:48.135Z,1023.84
2018-12-13T07:14:48.131Z,1023.82
2018-12-13T07:15:48.110Z,1023.83
2018-12-13T07:16:48.107Z,1023.85
2018-12-13T07:17:48.106Z,1023.85
2018-12-13T07:18:48.364Z,1023.85
2018-12-13T07:19:48.082Z,1023.84
2018-12-13T07:20:48.066Z,1023.81
2018-12-13T07:21:48.053Z,1023.78
2018-12-13T07:22:48.039Z,1023.79
2018-12-13T07:23:48.027Z,1023.78
2018-12-13T07:24:48.363Z,1023.81
2018-12-13T07:25:48.021Z,1023.82
2018-12-13T07:26:47.995Z,1023.82
2018-12-13T07:27:47.990Z,1023.82
2018-12-13T07:28:47.977Z,1023.84
2018-12-13T07:29:47.962Z,1023.91
2018-12-13T07:30:48.339Z,1023.87
2018-12-13T07:31:47.942Z,1023.89
2018-12-13T07:32:47.930Z,1023.94
2018-12-13T07:33:47.927Z,1023.87
2018-12-13T07:35:01.342Z,1023.90
2018-12-13T07:35:47.902Z,1023.91
2018-12-13T07:36:47.924Z,1023.91
2018-12-13T07:37:47.879Z,1023.91
2018-12-13T07:38:47.874Z,1023.92
2018-12-13T07:39:47.866Z,1023.97
2018-12-13T07:40:47.846Z,1023.93
2018-12-13T07:41:47.835Z,1023.98
2018-12-13T07:42:47.850Z,1023.97
2018-12-13T07:43:47.814Z,1023.96
2018-12-13T07:44:47.802Z,1024.01
2018-12-13T07:45:47.797Z,1023.94
2018-12-13T07:46:47.785Z,1023.95
2018-12-13T07:47:47.769Z,1024.01
2018-12-13T07:48:47.795Z,1024.01
2018-12-13T07:49:47.753Z,1023.99
2018-12-13T07:50:47.745Z,1023.99
2018-12-13T07:51:47.731Z,1023.98
2018-12-13T07:52:47.722Z,1024.01
2018-12-13T07:53:47.713Z,1023.97
2018-12-13T07:54:48.362Z,1023.96
2018-12-13T07:55:47.690Z,1023.99
2018-12-13T07:56:47.681Z,1024.01
2018-12-13T07:57:47.669Z,1024.04
2018-12-13T07:58:47.658Z,1024.08
2018-12-13T07:59:47.705Z,1024.04
2018-12-13T08:00:47.885Z,1024.10
2018-12-13T08:01:47.627Z,1024.07
2018-12-13T08:02:47.612Z,1024.03
2018-12-13T08:03:47.597Z,1024.04
2018-12-13T08:04:47.586Z,1024.03
2018-12-13T08:05:58.380Z,1024.06
2018-12-13T08:06:47.569Z,1024.06
2018-12-13T08:07:47.564Z,1024.08
2018-12-13T08:08:47.552Z,1024.09
2018-12-13T08:09:47.537Z,1024.05
2018-12-13T08:10:47.536Z,1024.04
2018-12-13T08:11:47.558Z,1024.07
2018-12-13T08:12:47.509Z,1024.10
2018-12-13T08:13:47.497Z,1024.04
2018-12-13T08:14:47.489Z,1024.08
2018-12-13T08:15:47.475Z,1024.07
2018-12-13T08:16:47.459Z,1024.06
2018-12-13T08:17:47.488Z,1024.04
2018-12-13T08:18:47.442Z,1024.05
2018-12-13T08:19:47.438Z,1024.04
2018-12-13T08:20:47.445Z,1024.05
2018-12-13T08:21:47.409Z,1024.05
2018-12-13T08:22:47.402Z,1024.05
2018-12-13T08:23:48.178Z,1024.02
2018-12-13T08:24:47.383Z,1024.08
2018-12-13T08:25:47.365Z,1024.05
2018-12-13T08:26:47.360Z,1024.14
2018-12-13T08:27:47.350Z,1024.12
2018-12-13T08:28:47.342Z,1024.11
2018-12-13T08:29:47.388Z,1024.10
2018-12-13T08:30:47.315Z,1024.14
2018-12-13T08:31:47.306Z,1024.10
2018-12-13T08:32:47.299Z,1024.18
2018-12-13T08:33:47.284Z,1024.15
2018-12-13T08:34:47.274Z,1024.13
2018-12-13T08:35:47.386Z,1024.17
2018-12-13T08:36:57.895Z,1024.15
2018-12-13T08:37:47.239Z,1024.13
2018-12-13T08:38:47.228Z,1024.16
2018-12-13T08:39:47.217Z,1024.17
2018-12-13T08:40:47.209Z,1024.13
2018-12-13T08:41:47.236Z,1024.17
2018-12-13T08:42:47.193Z,1024.11
2018-12-13T08:43:47.177Z,1024.16
2018-12-13T08:44:47.166Z,1024.16
2018-12-13T08:45:47.171Z,1024.21
2018-12-13T08:46:47.140Z,1024.16
2018-12-13T08:47:47.175Z,1024.20
2018-12-13T08:48:47.120Z,1024.20
2018-12-13T08:49:47.109Z,1024.20
2018-12-13T08:50:47.103Z,1024.20
2018-12-13T08:51:47.094Z,1024.15
2018-12-13T08:52:47.076Z,1024.16
2018-12-13T08:53:47.128Z,1024.20
2018-12-13T08:54:47.059Z,1024.20
2018-12-13T08:55:47.051Z,1024.21
2018-12-13T08:56:47.036Z,1024.21
2018-12-13T08:57:47.035Z,1024.24
2018-12-13T08:58:47.011Z,1024.21
2018-12-13T08:59:47.791Z,1024.27
2018-12-13T09:00:46.994Z,1024.20
2018-12-13T09:01:46.992Z,1024.22
2018-12-13T09:02:46.979Z,1024.19
2018-12-13T09:03:47.015Z,1024.18
2018-12-13T09:04:46.960Z,1024.16
2018-12-13T09:05:47.726Z,1024.20
2018-12-13T09:06:46.936Z,1024.23
2018-12-13T09:07:57.207Z,1024.25
2018-12-13T09:08:46.905Z,1024.28
2018-12-13T09:09:46.893Z,1024.24
2018-12-13T09:10:46.889Z,1024.23
2018-12-13T09:11:46.901Z,1024.20
2018-12-13T09:12:46.871Z,1024.21
2018-12-13T09:13:46.858Z,1024.23
2018-12-13T09:14:46.873Z,1024.27
2018-12-13T09:15:46.842Z,1024.22
2018-12-13T09:16:46.821Z,1024.23
2018-12-13T09:17:46.916Z,1024.20
2018-12-13T09:18:46.803Z,1024.23
2018-12-13T09:19:46.809Z,1024.27
2018-12-13T09:20:46.783Z,1024.22
2018-12-13T09:21:46.767Z,1024.26
2018-12-13T09:22:46.762Z,1024.28
2018-12-13T09:23:46.799Z,1024.29
2018-12-13T09:24:46.741Z,1024.25
2018-12-13T09:25:46.785Z,1024.25
2018-12-13T09:26:46.787Z,1024.22
2018-12-13T09:27:46.709Z,1024.27
2018-12-13T09:28:46.703Z,1024.26
2018-12-13T09:29:46.937Z,1024.23
2018-12-13T09:30:46.678Z,1024.26
2018-12-13T09:31:46.667Z,1024.28
2018-12-13T09:32:46.663Z,1024.33
2018-12-13T09:33:46.646Z,1024.32
2018-12-13T09:34:46.630Z,1024.31
2018-12-13T09:35:46.918Z,1024.33
2018-12-13T09:36:46.615Z,1024.31
2018-12-13T09:37:47.606Z,1024.34
2018-12-13T09:38:56.765Z,1024.31
2018-12-13T09:39:46.582Z,1024.34
2018-12-13T09:40:46.564Z,1024.37
2018-12-13T09:41:46.597Z,1024.43
2018-12-13T09:42:46.549Z,1024.36
2018-12-13T09:43:46.537Z,1024.38
2018-12-13T09:44:46.529Z,1024.43
2018-12-13T09:45:46.517Z,1024.46
2018-12-13T09:46:46.500Z,1024.40
2018-12-13T09:47:46.960Z,1024.40
2018-12-13T09:48:46.486Z,1024.38
2018-12-13T09:49:46.467Z,1024.35
2018-12-13T09:50:46.464Z,1024.34
2018-12-13T09:51:46.454Z,1024.38
2018-12-13T09:52:46.442Z,1024.43
2018-12-13T09:53:46.478Z,1024.40
2018-12-13T09:54:46.423Z,1024.41
2018-12-13T09:55:46.407Z,1024.40
2018-12-13T09:56:46.399Z,1024.37
2018-12-13T09:57:46.390Z,1024.33
2018-12-13T09:58:46.375Z,1024.37
2018-12-13T09:59:46.410Z,1024.35
2018-12-13T10:00:46.350Z,1024.37
2018-12-13T10:01:46.350Z,1024.31
2018-12-13T10:02:46.333Z,1024.32
2018-12-13T10:03:46.323Z,1024.28
2018-12-13T10:04:46.308Z,1024.28
2018-12-13T10:05:46.339Z,1024.28
2018-12-13T10:06:46.290Z,1024.23
2018-12-13T10:07:46.344Z,1024.28
2018-12-13T10:08:46.535Z,1024.26
2018-12-13T10:09:56.806Z,1024.30
2018-12-13T10:10:46.251Z,1024.31
2018-12-13T10:11:46.314Z,1024.26
2018-12-13T10:12:46.228Z,1024.32
2018-12-13T10:13:46.219Z,1024.29
2018-12-13T10:14:46.236Z,1024.32
2018-12-13T10:15:46.199Z,1024.29
2018-12-13T10:16:46.194Z,1024.29
2018-12-13T10:17:46.192Z,1024.30
2018-12-13T10:18:46.161Z,1024.26
2018-12-13T10:19:46.171Z,1024.27
2018-12-13T10:20:46.211Z,1024.30
2018-12-13T10:21:46.125Z,1024.28
2018-12-13T10:22:46.121Z,1024.26
2018-12-13T10:23:46.433Z,1024.29
2018-12-13T10:24:46.095Z,1024.24
2018-12-13T10:25:46.107Z,1024.25
2018-12-13T10:26:46.076Z,1024.27
2018-12-13T10:27:46.062Z,1024.24
2018-12-13T10:28:46.078Z,1024.25
2018-12-13T10:29:46.086Z,1024.24
2018-12-13T10:30:46.037Z,1024.18
2018-12-13T10:31:46.019Z,1024.17
2018-12-13T10:32:46.011Z,1024.15
2018-12-13T10:33:45.997Z,1024.16
2018-12-13T10:34:45.993Z,1024.12
2018-12-13T10:35:46.030Z,1024.18
2018-12-13T10:36:45.971Z,1024.16
2018-12-13T10:37:45.960Z,1024.16
2018-12-13T10:38:45.949Z,1024.13
2018-12-13T10:39:46.055Z,1024.09
2018-12-13T10:40:56.966Z,1024.08
2018-12-13T10:41:45.912Z,1024.09
2018-12-13T10:42:45.903Z,1024.11
2018-12-13T10:43:45.892Z,1024.11
2018-12-13T10:44:45.890Z,1024.09
2018-12-13T10:45:45.868Z,1024.08
2018-12-13T10:46:45.889Z,1024.15
2018-12-13T10:47:45.863Z,1024.15
2018-12-13T10:48:46.432Z,1024.18
2018-12-13T10:49:46.409Z,1024.14
2018-12-13T10:50:45.826Z,1024.14
2018-12-13T10:51:45.837Z,1024.17
2018-12-13T10:52:46.590Z,1024.13
2018-12-13T10:53:45.817Z,1024.12
2018-12-13T10:54:45.776Z,1024.12
2018-12-13T10:55:45.767Z,1024.13
2018-12-13T10:56:45.786Z,1024.13
2018-12-13T10:57:47.433Z,1024.15
2018-12-13T10:58:45.768Z,1024.17
2018-12-13T10:59:45.802Z,1024.13
2018-12-13T11:00:45.717Z,1024.12
2018-12-13T11:01:45.709Z,1024.18
2018-12-13T11:02:45.697Z,1024.19
2018-12-13T11:03:45.681Z,1024.20
2018-12-13T11:04:48.719Z,1024.21
2018-12-13T11:05:45.664Z,1024.20
2018-12-13T11:06:45.660Z,1024.14
2018-12-13T11:07:45.639Z,1024.29
2018-12-13T11:08:45.643Z,1024.22
2018-12-13T11:09:45.619Z,1024.28
2018-12-13T11:10:45.623Z,1024.22
2018-12-13T11:11:55.882Z,1024.27
2018-12-13T11:12:45.584Z,1024.25
2018-12-13T11:13:45.572Z,1024.20
2018-12-13T11:14:45.562Z,1024.26
2018-12-13T11:15:45.564Z,1024.26
2018-12-13T11:16:45.979Z,1024.27
2018-12-13T11:17:45.530Z,1024.24
2018-12-13T11:18:45.523Z,1024.27
2018-12-13T11:19:45.520Z,1024.26
2018-12-13T11:20:45.510Z,1024.28
2018-12-13T11:21:45.491Z,1024.29
2018-12-13T11:22:45.526Z,1024.26
2018-12-13T11:23:45.476Z,1024.32
2018-12-13T11:24:45.481Z,1024.31
2018-12-13T11:25:45.448Z,1024.37
2018-12-13T11:26:45.435Z,1024.34
2018-12-13T11:27:45.426Z,1024.34
2018-12-13T11:28:45.732Z,1024.32
2018-12-13T11:29:45.403Z,1024.30
2018-12-13T11:30:45.390Z,1024.30
2018-12-13T11:31:45.391Z,1024.31
2018-12-13T11:32:45.378Z,1024.29
2018-12-13T11:33:45.364Z,1024.33
2018-12-13T11:34:45.368Z,1024.27
2018-12-13T11:35:45.345Z,1024.26
2018-12-13T11:36:45.336Z,1024.23
2018-12-13T11:37:45.347Z,1024.21
2018-12-13T11:38:45.311Z,1024.22
2018-12-13T11:39:45.298Z,1024.18
2018-12-13T11:40:45.465Z,1024.23
2018-12-13T11:41:45.276Z,1024.24
2018-12-13T11:42:55.240Z,1024.25
2018-12-13T11:43:45.401Z,1024.23
2018-12-13T11:44:45.245Z,1024.24
2018-12-13T11:45:45.235Z,1024.20
2018-12-13T11:46:45.332Z,1024.26
2018-12-13T11:47:45.232Z,1024.24
2018-12-13T11:48:45.208Z,1024.22
2018-12-13T11:49:45.195Z,1024.23
2018-12-13T11:50:45.179Z,1024.22
2018-12-13T11:51:45.175Z,1024.28
2018-12-13T11:52:45.177Z,1024.24
2018-12-13T11:53:45.152Z,1024.22
2018-12-13T11:54:45.143Z,1024.21
2018-12-13T11:55:45.132Z,1024.21
2018-12-13T11:56:45.125Z,1024.24
2018-12-13T11:57:45.109Z,1024.30
2018-12-13T11:58:46.747Z,1024.22
2018-12-13T11:59:45.090Z,1024.20
2018-12-13T12:00:45.078Z,1024.27
2018-12-13T12:01:45.075Z,1024.29
2018-12-13T12:02:45.061Z,1024.27
2018-12-13T12:03:45.050Z,1024.24
2018-12-13T12:04:45.832Z,1024.29
2018-12-13T12:05:45.033Z,1024.29